Aérodrome :
LOGIN :

S'inscrire | Disclaimer

   EN    FR    IT 

 










Légende :    VFR   VFR Marginal   IFR   IFR Intensif   IFR Très Intensif
Visi : 
Plafond : 
>= 8 km
>= 3000ft
5 à 8 km
1000 à 3000 ft
1500m à 5 km
500 à 1000 ft
800 à 1500m
200 à 500 ft
< 800m
< 200 ft
Symboles :   Orages  Brouillard  Fortes neiges  Fortes précipitations  Vent > 20 kt
SIGMETs :   Divers  Orages  Givrage  Turbulence  Onde Orograph.  Cendres Volcan.






- Altitude de l'aérodrome : 112 ft
- Code IATA : KIR


EIKY - Kerry Farranfore

DERNIER METAR :
  • 030930Z 01011KT 330V060 9999 BKN027 13/08 Q1017

METARs EXPIRÉS :
  • 030900Z 01009KT 330V080 9999 BKN028 13/08 Q1017
  • 030830Z 01010KT 330V070 9999 BKN031 14/07 Q1017
  • 030800Z 02010KT 330V100 9999 SCT026 13/08 Q1017
  • 030730Z 01010G20KT 330V060 9999 SCT020 13/08 Q1017

TAF TAF EIKY
Valide du 03 à 09h jusqu'au 03 à 18h UTC


030800Z 0309/0318 01014KT 9999 SCT020 BKN030
TEMPO 0316/0318 01015G25KT



MET'MAP, la Météo Aéronautique d'un coup d'oeil ! - Copyright ORBIFLY Décembre 2007 - Disclaimer

ORBIFLY MET'MAP TEAM :

Programmation & Développement : Alexandra Zaïnal
Sur une idée originale de : Baudouin d'Aumeries
Assistance à la programmation : Marc-Olivier Méhu
Soutien technique & logistique : Manuel Goepfert

Contact : metmap@orbifly.com




SOURCES & CREDITS :

   NOAA